createdAt,value
2022-12-12T00:00:06.735Z,28
2022-12-12T00:01:14.340Z,32
2022-12-12T00:02:29.839Z,28
2022-12-12T00:03:37.023Z,25
2022-12-12T00:04:43.935Z,27
2022-12-12T00:05:51.168Z,29
2022-12-12T00:06:58.304Z,32
2022-12-12T00:08:05.628Z,36
2022-12-12T00:09:12.499Z,33
2022-12-12T00:10:19.660Z,30
2022-12-12T00:11:26.877Z,32
2022-12-12T00:12:34.041Z,25
2022-12-12T00:13:41.117Z,31
2022-12-12T00:14:48.353Z,30
2022-12-12T00:15:55.591Z,31
2022-12-12T00:17:02.616Z,30
2022-12-12T00:18:09.640Z,30
2022-12-12T00:19:16.840Z,33
2022-12-12T00:20:24.044Z,33
2022-12-12T00:21:31.134Z,29
2022-12-12T00:22:38.356Z,35
2022-12-12T00:23:45.789Z,36
2022-12-12T00:24:53.141Z,33
2022-12-12T00:26:00.207Z,31
2022-12-12T00:27:07.183Z,30
2022-12-12T00:28:14.412Z,25
2022-12-12T00:29:21.653Z,32
2022-12-12T00:30:28.581Z,35
2022-12-12T00:31:35.792Z,31
2022-12-12T00:32:42.868Z,38
2022-12-12T00:33:50.391Z,33
2022-12-12T00:34:57.525Z,30
2022-12-12T00:36:04.909Z,39
2022-12-12T00:37:12.340Z,31
2022-12-12T00:38:19.481Z,28
2022-12-12T00:39:26.641Z,31
2022-12-12T00:40:33.806Z,27
2022-12-12T00:41:41.910Z,25
2022-12-12T00:42:49.231Z,28
2022-12-12T00:43:56.216Z,29
2022-12-12T00:45:03.388Z,33
2022-12-12T00:46:10.954Z,31
2022-12-12T00:47:18.112Z,35
2022-12-12T00:48:25.496Z,27
2022-12-12T00:49:32.608Z,26
2022-12-12T00:50:39.477Z,30
2022-12-12T00:51:46.620Z,25
2022-12-12T00:52:53.767Z,29
2022-12-12T00:54:00.937Z,30
2022-12-12T00:55:08.004Z,43
2022-12-12T00:56:15.080Z,29
2022-12-12T00:57:22.166Z,25
2022-12-12T00:58:29.364Z,35
2022-12-12T00:59:36.509Z,32
2022-12-12T01:00:43.936Z,30
2022-12-12T01:01:51.395Z,29
2022-12-12T01:02:58.443Z,27
2022-12-12T01:04:05.421Z,32
2022-12-12T01:05:12.771Z,36
2022-12-12T01:06:19.960Z,31
2022-12-12T01:07:27.132Z,27
2022-12-12T01:08:34.531Z,29
2022-12-12T01:09:41.753Z,34
2022-12-12T01:10:48.741Z,36
2022-12-12T01:11:55.933Z,29
2022-12-12T01:13:03.073Z,42
2022-12-12T01:14:10.060Z,29
2022-12-12T01:15:17.331Z,30
2022-12-12T01:16:24.476Z,28
2022-12-12T01:17:31.457Z,29
2022-12-12T01:18:38.728Z,30
2022-12-12T01:19:45.804Z,28
2022-12-12T01:20:52.926Z,30
2022-12-12T01:22:00.261Z,26
2022-12-12T01:23:07.589Z,30
2022-12-12T01:24:14.743Z,29
2022-12-12T01:25:21.858Z,34
2022-12-12T01:26:29.225Z,29
2022-12-12T01:27:36.160Z,36
2022-12-12T01:28:43.336Z,43
2022-12-12T01:29:50.532Z,34
2022-12-12T01:30:58.409Z,31
2022-12-12T01:32:05.693Z,39
2022-12-12T01:33:12.877Z,32
2022-12-12T01:34:19.997Z,36
2022-12-12T01:35:27.504Z,37
2022-12-12T01:36:34.988Z,35
2022-12-12T01:37:41.969Z,28
2022-12-12T01:38:49.364Z,35
2022-12-12T01:39:56.252Z,33
2022-12-12T01:41:03.416Z,40
2022-12-12T01:42:10.552Z,36
2022-12-12T01:43:17.703Z,33
2022-12-12T01:44:24.733Z,39
2022-12-12T01:45:42.044Z,33
2022-12-12T01:46:59.640Z,30
2022-12-12T01:48:06.476Z,31
2022-12-12T01:49:13.650Z,34
2022-12-12T01:50:20.980Z,26
2022-12-12T01:51:27.945Z,31
2022-12-12T01:52:35.188Z,32
2022-12-12T01:53:44.923Z,29
2022-12-12T01:54:52.060Z,28
2022-12-12T01:55:59.131Z,42
2022-12-12T01:57:06.156Z,34
2022-12-12T01:58:13.320Z,30
2022-12-12T01:59:20.503Z,38
2022-12-12T02:00:27.801Z,31
2022-12-12T02:01:34.911Z,38
2022-12-12T02:02:41.863Z,36
2022-12-12T02:03:49.887Z,33
2022-12-12T02:04:56.688Z,37
2022-12-12T02:06:03.857Z,33
2022-12-12T02:07:10.949Z,32
2022-12-12T02:08:18.420Z,37
2022-12-12T02:09:25.679Z,36
2022-12-12T02:10:32.820Z,36
2022-12-12T02:11:40.248Z,34
2022-12-12T02:12:50.198Z,31
2022-12-12T02:13:57.286Z,43
2022-12-12T02:15:04.459Z,39
2022-12-12T02:16:12.837Z,38
2022-12-12T02:17:30.316Z,36
2022-12-12T02:18:45.716Z,44
2022-12-12T02:20:00.852Z,31
2022-12-12T02:21:16.186Z,42
2022-12-12T02:22:28.300Z,43
2022-12-12T02:23:45.654Z,51
2022-12-12T02:25:03.092Z,46
2022-12-12T02:26:20.664Z,47
2022-12-12T02:27:38.087Z,43
2022-12-12T02:28:55.488Z,43
2022-12-12T02:30:13.099Z,40
2022-12-12T02:31:25.380Z,37
2022-12-12T02:32:35.497Z,40
2022-12-12T02:33:50.940Z,44
2022-12-12T02:35:01.063Z,47
2022-12-12T02:36:18.679Z,45
2022-12-12T02:37:31.216Z,46
2022-12-12T02:38:43.314Z,45
2022-12-12T02:39:58.588Z,43
2022-12-12T02:41:10.646Z,41
2022-12-12T02:42:17.780Z,35
2022-12-12T02:43:30.032Z,46
2022-12-12T02:44:44.887Z,41
2022-12-12T02:46:00.103Z,35
2022-12-12T02:47:07.163Z,38
2022-12-12T02:48:16.892Z,37
2022-12-12T02:49:32.148Z,43
2022-12-12T02:50:39.356Z,39
2022-12-12T02:51:46.468Z,38
2022-12-12T02:52:53.584Z,41
2022-12-12T02:54:01.015Z,37
2022-12-12T02:55:08.459Z,45
2022-12-12T02:56:15.470Z,43
2022-12-12T02:57:32.839Z,40
2022-12-12T02:58:39.968Z,36
2022-12-12T02:59:47.247Z,42
2022-12-12T03:00:59.394Z,44
2022-12-12T03:02:14.092Z,32
2022-12-12T03:03:31.360Z,25
2022-12-12T03:04:46.680Z,36
2022-12-12T03:06:04.292Z,43
2022-12-12T03:07:27.112Z,34
2022-12-12T03:08:44.788Z,25
2022-12-12T03:09:57.975Z,26
2022-12-12T03:11:12.712Z,37
2022-12-12T03:12:20.884Z,39
2022-12-12T03:13:38.115Z,34
2022-12-12T03:14:53.447Z,36
2022-12-12T03:16:08.244Z,31
2022-12-12T03:17:20.443Z,38
2022-12-12T03:18:37.735Z,32
2022-12-12T03:19:52.563Z,32
2022-12-12T03:20:59.707Z,33
2022-12-12T03:22:12.633Z,30
2022-12-12T03:23:30.114Z,28
2022-12-12T03:24:42.406Z,44
2022-12-12T03:25:52.595Z,46
2022-12-12T03:27:05.391Z,31
2022-12-12T03:28:22.616Z,37
2022-12-12T03:29:34.827Z,38
2022-12-12T03:30:44.537Z,25
2022-12-12T03:31:51.764Z,36
2022-12-12T03:32:58.791Z,31
2022-12-12T03:34:10.912Z,29
2022-12-12T03:35:21.120Z,32
2022-12-12T03:36:31.627Z,31
2022-12-12T03:37:46.876Z,31
2022-12-12T03:38:53.856Z,27
2022-12-12T03:40:01.098Z,35
2022-12-12T03:41:14.148Z,27
2022-12-12T03:42:21.167Z,30
2022-12-12T03:43:28.332Z,27
2022-12-12T03:44:41.712Z,31
2022-12-12T03:45:47.932Z,27
2022-12-12T03:46:57.931Z,26
2022-12-12T03:48:07.616Z,29
2022-12-12T03:49:22.993Z,26
2022-12-12T03:50:30.031Z,31
2022-12-12T03:51:37.189Z,31
2022-12-12T03:52:44.304Z,34
2022-12-12T03:53:57.404Z,31
2022-12-12T03:55:12.878Z,36
2022-12-12T03:56:27.607Z,29
2022-12-12T03:57:34.735Z,37
2022-12-12T03:58:41.811Z,38
2022-12-12T03:59:54.148Z,31
2022-12-12T04:01:10.794Z,33
2022-12-12T04:02:18.120Z,34
2022-12-12T04:03:28.431Z,29
2022-12-12T04:04:40.510Z,39
2022-12-12T04:05:56.099Z,36
2022-12-12T04:07:11.664Z,38
2022-12-12T04:08:23.724Z,29
2022-12-12T04:09:30.939Z,38
2022-12-12T04:10:43.068Z,29
2022-12-12T04:11:55.252Z,33
2022-12-12T04:13:09.991Z,30
2022-12-12T04:14:17.132Z,34
2022-12-12T04:15:29.667Z,43
2022-12-12T04:16:47.322Z,40
2022-12-12T04:17:54.424Z,32
2022-12-12T04:19:01.692Z,33
2022-12-12T04:20:11.246Z,28
2022-12-12T04:21:26.731Z,35
2022-12-12T04:22:44.255Z,26
2022-12-12T04:23:56.463Z,35
2022-12-12T04:25:14.285Z,30
2022-12-12T04:26:21.324Z,32
2022-12-12T04:27:43.740Z,31
2022-12-12T04:28:51.246Z,33
2022-12-12T04:30:08.698Z,38
2022-12-12T04:31:15.866Z,32
2022-12-12T04:32:22.974Z,29
2022-12-12T04:33:35.207Z,34
2022-12-12T04:34:45.491Z,33
2022-12-12T04:36:00.158Z,33
2022-12-12T04:37:07.475Z,32
2022-12-12T04:38:14.427Z,35
2022-12-12T04:39:21.559Z,33
2022-12-12T04:40:28.683Z,32
2022-12-12T04:41:46.318Z,33
2022-12-12T04:42:53.663Z,33
2022-12-12T04:44:00.912Z,36
2022-12-12T04:45:07.807Z,33
2022-12-12T04:46:17.573Z,40
2022-12-12T04:47:24.632Z,37
2022-12-12T04:48:35.692Z,40
2022-12-12T04:49:44.047Z,38
2022-12-12T04:50:51.214Z,45
2022-12-12T04:51:58.579Z,46
2022-12-12T04:53:14.844Z,49
2022-12-12T04:54:18.064Z,41
2022-12-12T04:55:28.299Z,38
2022-12-12T04:56:35.718Z,44
2022-12-12T04:57:42.677Z,40
2022-12-12T04:58:49.754Z,43
2022-12-12T04:59:56.950Z,44
2022-12-12T05:01:04.167Z,46
2022-12-12T05:02:14.278Z,47
2022-12-12T05:03:23.962Z,41
2022-12-12T05:04:34.078Z,44
2022-12-12T05:05:41.175Z,44
2022-12-12T05:06:53.622Z,40
2022-12-12T05:08:01.512Z,41
2022-12-12T05:09:11.499Z,42
2022-12-12T05:10:18.443Z,45
2022-12-12T05:11:25.614Z,51
2022-12-12T05:12:32.635Z,52
2022-12-12T05:13:44.947Z,51
2022-12-12T05:14:52.106Z,46
2022-12-12T05:15:59.413Z,47
2022-12-12T05:17:06.518Z,53
2022-12-12T05:18:13.375Z,52
2022-12-12T05:19:20.534Z,55
2022-12-12T05:20:27.722Z,50
2022-12-12T05:21:34.923Z,53
2022-12-12T05:22:42.218Z,48
2022-12-12T05:23:49.103Z,49
2022-12-12T05:24:56.314Z,54
2022-12-12T05:26:03.455Z,56
2022-12-12T05:27:13.410Z,54
2022-12-12T05:28:20.667Z,57
2022-12-12T05:29:27.845Z,54
2022-12-12T05:30:35.064Z,58
2022-12-12T05:31:42.107Z,63
2022-12-12T05:32:49.241Z,58
2022-12-12T05:33:56.486Z,54
2022-12-12T05:35:03.900Z,53
2022-12-12T05:36:11.658Z,55
2022-12-12T05:37:18.822Z,64
2022-12-12T05:38:25.890Z,65
2022-12-12T05:39:33.062Z,57
2022-12-12T05:40:40.220Z,65
2022-12-12T05:41:47.362Z,64
2022-12-12T05:42:54.519Z,63
2022-12-12T05:44:01.662Z,62
2022-12-12T05:45:08.802Z,65
2022-12-12T05:46:15.843Z,67
2022-12-12T05:47:23.018Z,65
2022-12-12T05:48:30.095Z,66
2022-12-12T05:49:37.275Z,67
2022-12-12T05:50:44.498Z,68
2022-12-12T05:51:51.495Z,70
2022-12-12T05:52:58.666Z,76
2022-12-12T05:54:05.815Z,76
2022-12-12T05:55:13.398Z,75
2022-12-12T05:56:20.570Z,80
2022-12-12T05:57:27.640Z,69
2022-12-12T05:58:34.761Z,83
2022-12-12T05:59:41.742Z,74
2022-12-12T06:00:51.718Z,80
2022-12-12T06:01:58.703Z,79
2022-12-12T06:03:05.856Z,75
2022-12-12T06:04:13.108Z,74
2022-12-12T06:05:20.018Z,78
2022-12-12T06:06:27.158Z,76
2022-12-12T06:07:34.421Z,73
2022-12-12T06:08:41.626Z,75
2022-12-12T06:09:48.659Z,80
2022-12-12T06:10:56.142Z,81
2022-12-12T06:12:03.723Z,76
2022-12-12T06:13:10.999Z,77
2022-12-12T06:14:18.162Z,80
2022-12-12T06:15:25.550Z,89
2022-12-12T06:16:32.406Z,81
2022-12-12T06:17:39.634Z,78
2022-12-12T06:18:46.792Z,86
2022-12-12T06:19:53.838Z,85
2022-12-12T06:21:02.806Z,86
2022-12-12T06:22:12.614Z,100
2022-12-12T06:23:19.788Z,98
2022-12-12T06:24:27.140Z,86
2022-12-12T06:25:34.130Z,87
2022-12-12T06:26:41.315Z,93
2022-12-12T06:27:48.282Z,94
2022-12-12T06:28:55.434Z,91
2022-12-12T06:30:02.531Z,90
2022-12-12T06:31:11.964Z,90
2022-12-12T06:32:17.291Z,91
2022-12-12T06:33:24.430Z,88
2022-12-12T06:34:31.639Z,90
2022-12-12T06:35:38.778Z,87
2022-12-12T06:36:45.822Z,92
2022-12-12T06:37:52.959Z,95
2022-12-12T06:39:00.185Z,94
2022-12-12T06:40:07.266Z,94
2022-12-12T06:41:14.930Z,101
2022-12-12T06:42:21.978Z,91
2022-12-12T06:43:29.070Z,90
2022-12-12T06:44:36.243Z,97
2022-12-12T06:45:43.376Z,95
2022-12-12T06:46:50.619Z,96
2022-12-12T06:47:57.838Z,94
2022-12-12T06:49:04.843Z,92
2022-12-12T06:50:11.844Z,93
2022-12-12T06:51:18.969Z,103
2022-12-12T06:52:26.185Z,99
2022-12-12T06:53:33.333Z,98
2022-12-12T06:54:40.510Z,103
2022-12-12T06:55:47.577Z,94
2022-12-12T06:56:54.743Z,101
2022-12-12T06:58:01.850Z,97
2022-12-12T06:59:09.041Z,105
2022-12-12T07:00:16.178Z,109
2022-12-12T07:01:23.798Z,101
2022-12-12T07:02:31.007Z,95
2022-12-12T07:03:38.918Z,97
2022-12-12T07:04:46.174Z,102
2022-12-12T07:05:53.340Z,101
2022-12-12T07:07:00.518Z,96
2022-12-12T07:08:07.829Z,95
2022-12-12T07:09:15.037Z,98
2022-12-12T07:10:22.367Z,100
2022-12-12T07:11:30.161Z,101
2022-12-12T07:12:37.100Z,106
2022-12-12T07:13:44.462Z,106
2022-12-12T07:14:51.438Z,103
2022-12-12T07:15:58.665Z,105
2022-12-12T07:17:05.713Z,103
2022-12-12T07:18:12.846Z,99
2022-12-12T07:19:20.016Z,105
2022-12-12T07:20:27.145Z,105
2022-12-12T07:21:34.325Z,107
2022-12-12T07:22:41.483Z,104
2022-12-12T07:23:48.530Z,100
2022-12-12T07:24:55.586Z,101
2022-12-12T07:26:02.946Z,102
2022-12-12T07:27:09.922Z,115
2022-12-12T07:28:16.997Z,109
2022-12-12T07:29:24.106Z,103
2022-12-12T07:30:31.226Z,105
2022-12-12T07:31:38.531Z,99
2022-12-12T07:32:45.619Z,104
2022-12-12T07:33:52.582Z,114
2022-12-12T07:34:59.782Z,111
2022-12-12T07:36:08.027Z,107
2022-12-12T07:37:18.699Z,106
2022-12-12T07:38:25.558Z,108
2022-12-12T07:39:33.014Z,105
2022-12-12T07:40:40.446Z,110
2022-12-12T07:41:47.625Z,105
2022-12-12T07:42:54.610Z,111
2022-12-12T07:44:02.542Z,112
2022-12-12T07:45:12.502Z,115
2022-12-12T07:46:17.012Z,114
2022-12-12T07:47:25.243Z,113
2022-12-12T07:48:32.274Z,109
2022-12-12T07:49:39.355Z,116
2022-12-12T07:50:46.454Z,118
2022-12-12T07:51:53.662Z,113
2022-12-12T07:53:00.846Z,119
2022-12-12T07:54:08.326Z,114
2022-12-12T07:55:15.745Z,115
2022-12-12T07:56:23.015Z,113
2022-12-12T07:57:30.306Z,124
2022-12-12T07:58:37.858Z,117
2022-12-12T07:59:45.110Z,112
2022-12-12T08:00:52.267Z,115
2022-12-12T08:01:59.456Z,118
2022-12-12T08:03:06.502Z,117
2022-12-12T08:04:13.761Z,118
2022-12-12T08:05:21.024Z,115
2022-12-12T08:06:27.841Z,119
2022-12-12T08:07:35.225Z,119
2022-12-12T08:08:42.181Z,119
2022-12-12T08:09:50.461Z,116
2022-12-12T08:10:57.422Z,120
2022-12-12T08:12:04.551Z,119
2022-12-12T08:13:11.946Z,122
2022-12-12T08:14:19.438Z,115
2022-12-12T08:15:26.405Z,134
2022-12-12T08:16:34.624Z,120
2022-12-12T08:17:42.019Z,109
2022-12-12T08:18:49.353Z,114
2022-12-12T08:19:59.061Z,112
2022-12-12T08:21:06.367Z,106
2022-12-12T08:22:13.931Z,111
2022-12-12T08:23:21.949Z,124
2022-12-12T08:24:29.251Z,110
2022-12-12T08:25:36.134Z,112
2022-12-12T08:26:43.304Z,109
2022-12-12T08:27:50.514Z,109
2022-12-12T08:28:57.679Z,113
2022-12-12T08:30:04.797Z,109
2022-12-12T08:31:12.337Z,116
2022-12-12T08:32:19.473Z,112
2022-12-12T08:33:26.580Z,115
2022-12-12T08:34:33.929Z,111
2022-12-12T08:35:40.925Z,108
2022-12-12T08:36:48.004Z,107
2022-12-12T08:37:55.118Z,128
2022-12-12T08:39:02.261Z,114
2022-12-12T08:40:09.373Z,109
2022-12-12T08:41:16.740Z,114
2022-12-12T08:42:23.761Z,120
2022-12-12T08:43:30.849Z,117
2022-12-12T08:44:37.978Z,112
2022-12-12T08:45:46.150Z,118
2022-12-12T08:46:53.230Z,119
2022-12-12T08:48:00.512Z,114
2022-12-12T08:49:07.629Z,123
2022-12-12T08:50:14.572Z,116
2022-12-12T08:51:21.647Z,115
2022-12-12T08:52:28.921Z,118
2022-12-12T08:53:36.283Z,122
2022-12-12T08:54:43.713Z,116
2022-12-12T08:55:50.899Z,112
2022-12-12T08:56:57.928Z,119
2022-12-12T08:58:05.049Z,113
2022-12-12T08:59:12.095Z,118
2022-12-12T09:00:19.490Z,112
2022-12-12T09:01:26.756Z,117
2022-12-12T09:02:34.487Z,108
2022-12-12T09:03:41.774Z,111
2022-12-12T09:04:48.903Z,116
2022-12-12T09:05:56.087Z,110
2022-12-12T09:07:08.202Z,108
2022-12-12T09:08:10.350Z,114
2022-12-12T09:09:18.199Z,122
2022-12-12T09:10:25.530Z,112
2022-12-12T09:11:32.690Z,118
2022-12-12T09:12:42.000Z,120
2022-12-12T09:13:52.346Z,115
2022-12-12T09:14:59.760Z,118
2022-12-12T09:16:07.015Z,113
2022-12-12T09:17:13.983Z,113
2022-12-12T09:18:21.247Z,114
2022-12-12T09:19:30.099Z,115
2022-12-12T09:20:37.343Z,115
2022-12-12T09:21:44.420Z,117
2022-12-12T09:22:51.544Z,118
2022-12-12T09:23:58.620Z,117
2022-12-12T09:25:05.847Z,113
2022-12-12T09:26:12.952Z,114
2022-12-12T09:27:20.130Z,116
2022-12-12T09:28:27.207Z,113
2022-12-12T09:29:34.465Z,114
2022-12-12T09:30:41.526Z,119
2022-12-12T09:31:48.593Z,116
2022-12-12T09:32:55.753Z,118
2022-12-12T09:34:03.685Z,120
2022-12-12T09:35:11.365Z,118
2022-12-12T09:36:18.294Z,121
2022-12-12T09:37:26.027Z,115
2022-12-12T09:38:32.958Z,122
2022-12-12T09:39:39.963Z,115
2022-12-12T09:40:47.108Z,113
2022-12-12T09:41:57.193Z,113
2022-12-12T09:43:05.419Z,112
2022-12-12T09:44:12.562Z,113
2022-12-12T09:45:20.413Z,117
2022-12-12T09:46:27.591Z,118
2022-12-12T09:47:37.821Z,113
2022-12-12T09:48:50.195Z,121
2022-12-12T09:49:57.371Z,114
2022-12-12T09:51:05.375Z,117
2022-12-12T09:52:12.632Z,112
2022-12-12T09:53:20.538Z,103
2022-12-12T09:54:27.937Z,113
2022-12-12T09:55:35.011Z,108
2022-12-12T09:56:52.311Z,112
2022-12-12T09:58:07.139Z,108
2022-12-12T09:59:20.311Z,111
2022-12-12T10:00:32.560Z,109
2022-12-12T10:01:39.789Z,111
2022-12-12T10:02:52.177Z,112
2022-12-12T10:04:07.417Z,107
2022-12-12T10:05:19.878Z,108
2022-12-12T10:06:39.631Z,109
2022-12-12T10:07:50.233Z,114
2022-12-12T10:09:00.723Z,114
2022-12-12T10:10:16.151Z,105
2022-12-12T10:11:26.908Z,108
2022-12-12T10:12:39.707Z,109
2022-12-12T10:13:47.156Z,105
2022-12-12T10:14:54.243Z,104
2022-12-12T10:16:04.168Z,109
2022-12-12T10:17:13.711Z,105
2022-12-12T10:18:26.107Z,106
2022-12-12T10:19:38.212Z,119
2022-12-12T10:20:45.716Z,115
2022-12-12T10:21:53.000Z,116
2022-12-12T10:23:00.424Z,114
2022-12-12T10:24:17.923Z,113
2022-12-12T10:25:27.972Z,115
2022-12-12T10:26:45.394Z,116
2022-12-12T10:27:52.749Z,113
2022-12-12T10:29:03.922Z,118
2022-12-12T10:30:16.546Z,119
2022-12-12T10:31:23.634Z,115
2022-12-12T10:32:38.710Z,113
2022-12-12T10:33:49.336Z,115
2022-12-12T10:35:04.311Z,116
2022-12-12T10:36:16.411Z,114
2022-12-12T10:37:26.626Z,109
2022-12-12T10:38:41.879Z,123
2022-12-12T10:39:54.075Z,125
2022-12-12T10:41:11.459Z,115
2022-12-12T10:42:21.216Z,116
2022-12-12T10:43:37.188Z,113
2022-12-12T10:44:48.042Z,116
2022-12-12T10:45:55.322Z,116
2022-12-12T10:47:10.565Z,117
2022-12-12T10:48:17.577Z,116
2022-12-12T10:49:24.785Z,112
2022-12-12T10:50:33.333Z,114
2022-12-12T10:51:48.331Z,107
2022-12-12T10:52:55.611Z,118
2022-12-12T10:54:03.295Z,115
2022-12-12T10:55:10.373Z,113
2022-12-12T10:56:22.293Z,112
2022-12-12T10:57:29.415Z,112
2022-12-12T10:58:39.699Z,109
2022-12-12T10:59:48.008Z,116
2022-12-12T11:00:54.965Z,112
2022-12-12T11:02:10.339Z,118
2022-12-12T11:03:22.979Z,116
2022-12-12T11:04:30.125Z,116
2022-12-12T11:05:37.328Z,117
2022-12-12T11:06:44.535Z,116
2022-12-12T11:07:57.047Z,116
2022-12-12T11:09:07.639Z,117
2022-12-12T11:10:22.656Z,110
2022-12-12T11:11:34.726Z,113
2022-12-12T11:12:42.979Z,116
2022-12-12T11:13:49.988Z,116
2022-12-12T11:14:57.360Z,119
2022-12-12T11:16:13.410Z,114
2022-12-12T11:17:17.415Z,119
2022-12-12T11:18:29.866Z,121
2022-12-12T11:19:36.837Z,121
2022-12-12T11:20:43.947Z,118
2022-12-12T11:21:56.385Z,119
2022-12-12T11:23:03.457Z,118
2022-12-12T11:24:10.525Z,128
2022-12-12T11:25:17.599Z,117
2022-12-12T11:26:27.322Z,117
2022-12-12T11:27:34.638Z,110
2022-12-12T11:28:41.797Z,113
2022-12-12T11:29:56.936Z,113
2022-12-12T11:31:09.135Z,111
2022-12-12T11:32:17.887Z,115
2022-12-12T11:33:24.907Z,111
2022-12-12T11:34:37.641Z,113
2022-12-12T11:35:47.593Z,115
2022-12-12T11:36:52.138Z,110
2022-12-12T11:37:59.209Z,116
2022-12-12T11:39:11.593Z,121
2022-12-12T11:40:24.034Z,116
2022-12-12T11:41:31.130Z,117
2022-12-12T11:42:38.389Z,130
2022-12-12T11:43:45.501Z,124
2022-12-12T11:44:52.622Z,117
2022-12-12T11:46:05.548Z,114
2022-12-12T11:47:18.124Z,111
2022-12-12T11:48:25.315Z,112
2022-12-12T11:49:32.532Z,107
2022-12-12T11:50:39.708Z,115
2022-12-12T11:51:49.748Z,116
2022-12-12T11:52:56.861Z,115
2022-12-12T11:54:04.028Z,111
2022-12-12T11:55:11.755Z,117
2022-12-12T11:56:18.790Z,113
2022-12-12T11:57:31.142Z,111
2022-12-12T11:58:43.685Z,116
2022-12-12T11:59:51.238Z,118
2022-12-12T12:01:03.653Z,118
2022-12-12T12:02:13.394Z,125
2022-12-12T12:03:30.690Z,121
2022-12-12T12:04:38.026Z,120
2022-12-12T12:05:50.103Z,113
2022-12-12T12:07:05.520Z,109
2022-12-12T12:08:18.023Z,105
2022-12-12T12:09:35.706Z,109
2022-12-12T12:10:51.146Z,108
2022-12-12T12:12:03.403Z,102
2022-12-12T12:13:18.914Z,106
2022-12-12T12:14:36.461Z,104
2022-12-12T12:15:48.583Z,106
2022-12-12T12:17:01.201Z,106
2022-12-12T12:18:19.751Z,102
2022-12-12T12:19:31.278Z,103
2022-12-12T12:20:43.910Z,107
2022-12-12T12:21:50.974Z,103
2022-12-12T12:23:03.313Z,107
2022-12-12T12:24:20.810Z,101
2022-12-12T12:25:33.047Z,102
2022-12-12T12:26:45.500Z,101
2022-12-12T12:27:58.026Z,100
2022-12-12T12:29:10.525Z,104
2022-12-12T12:30:25.568Z,103
2022-12-12T12:31:42.810Z,104
2022-12-12T12:32:55.044Z,105
2022-12-12T12:34:07.643Z,99
2022-12-12T12:35:22.650Z,103
2022-12-12T12:36:34.854Z,104
2022-12-12T12:37:52.600Z,105
2022-12-12T12:39:09.881Z,104
2022-12-12T12:40:27.349Z,103
2022-12-12T12:41:39.828Z,104
2022-12-12T12:42:52.072Z,112
2022-12-12T12:44:04.323Z,117
2022-12-12T12:45:19.852Z,105
2022-12-12T12:46:32.383Z,120
2022-12-12T12:47:49.696Z,119
2022-12-12T12:48:56.760Z,111
2022-12-12T12:50:03.976Z,109
2022-12-12T12:51:21.353Z,111
2022-12-12T12:52:28.328Z,108
2022-12-12T12:53:40.756Z,107
2022-12-12T12:54:53.324Z,107
2022-12-12T12:56:00.701Z,110
2022-12-12T12:57:07.769Z,108
2022-12-12T12:58:20.341Z,107
2022-12-12T12:59:31.585Z,108
2022-12-12T13:00:38.685Z,115
2022-12-12T13:01:46.785Z,114
2022-12-12T13:02:53.945Z,109
2022-12-12T13:04:06.335Z,110
2022-12-12T13:05:21.680Z,110
2022-12-12T13:06:40.362Z,108
2022-12-12T13:07:57.840Z,109
2022-12-12T13:09:07.816Z,111
2022-12-12T13:10:25.565Z,114
2022-12-12T13:11:33.613Z,112
2022-12-12T13:12:40.977Z,110
2022-12-12T13:13:48.028Z,112
2022-12-12T13:14:55.101Z,113
2022-12-12T13:16:02.396Z,122
2022-12-12T13:17:09.336Z,123
2022-12-12T13:18:16.509Z,115
2022-12-12T13:19:23.784Z,114
2022-12-12T13:20:36.337Z,115
2022-12-12T13:21:49.677Z,111
2022-12-12T13:22:56.712Z,119
2022-12-12T13:24:03.846Z,112
2022-12-12T13:25:19.028Z,115
2022-12-12T13:26:34.399Z,115
2022-12-12T13:27:51.813Z,113
2022-12-12T13:28:58.732Z,114
2022-12-12T13:30:06.724Z,113
2022-12-12T13:31:14.328Z,116
2022-12-12T13:32:29.241Z,116
2022-12-12T13:33:39.447Z,118
2022-12-12T13:34:46.569Z,118
2022-12-12T13:35:53.793Z,118
2022-12-12T13:37:00.866Z,121
2022-12-12T13:38:07.944Z,119
2022-12-12T13:39:20.493Z,119
2022-12-12T13:40:35.414Z,124
2022-12-12T13:41:42.611Z,120
2022-12-12T13:42:54.789Z,112
2022-12-12T13:44:01.941Z,121
2022-12-12T13:45:09.102Z,116
2022-12-12T13:46:21.465Z,119
2022-12-12T13:47:28.385Z,117
2022-12-12T13:48:35.869Z,121
2022-12-12T13:49:46.212Z,115
2022-12-12T13:50:56.848Z,121
2022-12-12T13:52:14.324Z,117
2022-12-12T13:53:21.356Z,117
2022-12-12T13:54:28.500Z,120
2022-12-12T13:55:35.610Z,116
2022-12-12T13:56:43.036Z,118
2022-12-12T13:58:00.674Z,125
2022-12-12T13:59:09.224Z,113
2022-12-12T14:00:26.591Z,117
2022-12-12T14:01:33.880Z,127
2022-12-12T14:02:41.934Z,125
2022-12-12T14:03:49.041Z,119
2022-12-12T14:04:56.168Z,118
2022-12-12T14:06:13.591Z,123
2022-12-12T14:07:20.796Z,122
2022-12-12T14:08:27.797Z,119
2022-12-12T14:09:46.918Z,118
2022-12-12T14:10:41.961Z,118
2022-12-12T14:11:49.088Z,118
2022-12-12T14:12:56.326Z,119
2022-12-12T14:14:14.020Z,111
2022-12-12T14:15:23.732Z,118
2022-12-12T14:16:30.834Z,115
2022-12-12T14:17:42.021Z,115
2022-12-12T14:18:45.216Z,119
2022-12-12T14:19:55.354Z,119
2022-12-12T14:21:02.604Z,115
2022-12-12T14:22:13.120Z,115
2022-12-12T14:23:30.296Z,113
2022-12-12T14:24:37.477Z,118
2022-12-12T14:25:44.660Z,116
2022-12-12T14:26:51.828Z,116
2022-12-12T14:27:58.896Z,119
2022-12-12T14:29:06.118Z,115
2022-12-12T14:30:21.366Z,111
2022-12-12T14:31:33.476Z,112
2022-12-12T14:32:35.661Z,118
2022-12-12T14:33:45.319Z,112
2022-12-12T14:34:57.633Z,117
2022-12-12T14:36:04.783Z,112
2022-12-12T14:37:19.934Z,116
2022-12-12T14:38:32.034Z,118
2022-12-12T14:39:44.357Z,115
2022-12-12T14:40:57.627Z,111
2022-12-12T14:42:04.796Z,122
2022-12-12T14:43:16.334Z,118
2022-12-12T14:44:35.880Z,121
2022-12-12T14:45:36.353Z,121
2022-12-12T14:46:49.083Z,122
2022-12-12T14:47:56.141Z,120
2022-12-12T14:49:11.692Z,123
2022-12-12T14:50:18.964Z,117
2022-12-12T14:51:29.649Z,115
2022-12-12T14:52:33.900Z,122
2022-12-12T14:53:41.209Z,126
2022-12-12T14:54:51.576Z,123
2022-12-12T14:55:59.084Z,112
2022-12-12T14:57:11.633Z,116
2022-12-12T14:58:19.377Z,116
2022-12-12T14:59:26.468Z,119
2022-12-12T15:00:36.972Z,120
2022-12-12T15:01:52.613Z,114
2022-12-12T15:02:59.588Z,113
2022-12-12T15:04:06.597Z,115
2022-12-12T15:05:16.681Z,130
2022-12-12T15:06:23.966Z,136
2022-12-12T15:07:33.965Z,142
2022-12-12T15:08:41.346Z,140
2022-12-12T15:09:48.564Z,146
2022-12-12T15:10:55.664Z,145
2022-12-12T15:12:03.833Z,156
2022-12-12T15:13:13.852Z,163
2022-12-12T15:14:20.904Z,179
2022-12-12T15:15:30.931Z,182
2022-12-12T15:16:39.865Z,180
2022-12-12T15:17:50.551Z,174
2022-12-12T15:18:57.501Z,165
2022-12-12T15:20:04.788Z,159
2022-12-12T15:21:17.377Z,157
2022-12-12T15:22:24.520Z,159
2022-12-12T15:23:34.740Z,154
2022-12-12T15:24:42.135Z,143
2022-12-12T15:25:49.005Z,138
2022-12-12T15:26:59.127Z,134
2022-12-12T15:28:07.380Z,133
2022-12-12T15:29:14.397Z,128
2022-12-12T15:30:21.562Z,130
2022-12-12T15:31:33.878Z,119
2022-12-12T15:32:40.998Z,123
2022-12-12T15:33:48.222Z,120
2022-12-12T15:34:55.245Z,115
2022-12-12T15:36:07.733Z,109
2022-12-12T15:37:20.495Z,108
2022-12-12T15:38:30.648Z,106
2022-12-12T15:39:38.883Z,100
2022-12-12T15:40:46.077Z,97
2022-12-12T15:41:54.144Z,103
2022-12-12T15:43:01.429Z,96
2022-12-12T15:44:12.038Z,98
2022-12-12T15:45:21.692Z,95
2022-12-12T15:46:31.501Z,105
2022-12-12T15:47:38.561Z,101
2022-12-12T15:48:45.704Z,95
2022-12-12T15:49:54.991Z,100
2022-12-12T15:51:12.282Z,97
2022-12-12T15:52:19.300Z,96
2022-12-12T15:53:26.522Z,93
2022-12-12T15:54:33.561Z,93
2022-12-12T15:55:40.748Z,93
2022-12-12T15:56:58.581Z,99
2022-12-12T15:58:05.634Z,95
2022-12-12T15:59:12.796Z,102
2022-12-12T16:00:19.860Z,95
2022-12-12T16:01:35.914Z,91
2022-12-12T16:02:43.405Z,103
2022-12-12T16:03:51.239Z,97
2022-12-12T16:05:03.655Z,104
2022-12-12T16:06:21.288Z,96
2022-12-12T16:07:33.513Z,98
2022-12-12T16:08:44.042Z,99